Time;durP1;ratioP1;P1;durP2;ratioP2;P2;SDS_P1;SDS_P2;PMS_P1;PMS_P2;Temp;Humidity;BMP_temperature;BMP_pressure;BME280_temperature;BME280_humidity;BME280_pressure;Samples;Min_cycle;Max_cycle;Signal;HPM_P1;HPM_P2
2022/04/19 00:00:43;;;;;;;5.72;3.42;;;7.20;99.90;;;;;;5016684;28;20085;-77
2022/04/19 00:03:10;;;;;;;6.05;4.05;;;7.10;99.90;;;;;;4977388;28;20132;-78
2022/04/19 00:05:36;;;;;;;5.18;3.80;;;7.20;99.90;;;;;;4983620;28;20390;-77
2022/04/19 00:08:03;;;;;;;6.65;3.47;;;7.10;99.90;;;;;;5027621;28;20045;-78
2022/04/19 00:10:29;;;;;;;8.30;3.67;;;7.00;99.90;;;;;;5018495;28;20107;-76
2022/04/19 00:13:01;;;;;;;5.05;3.13;;;7.00;99.90;;;;;;5017844;28;20042;-76
2022/04/19 00:15:28;;;;;;;5.22;3.53;;;7.00;99.90;;;;;;4994744;28;20429;-77
2022/04/19 00:18:02;;;;;;;7.35;3.92;;;6.90;99.90;;;;;;5010569;28;20172;-77
2022/04/19 00:20:29;;;;;;;9.13;3.83;;;6.90;99.90;;;;;;5016610;28;20500;-76
2022/04/19 00:22:57;;;;;;;4.50;3.13;;;6.90;99.90;;;;;;5016147;28;20026;-76
2022/04/19 00:25:23;;;;;;;6.15;3.95;;;6.80;99.90;;;;;;5017142;28;20238;-77
2022/04/19 00:27:50;;;;;;;5.35;3.10;;;6.80;99.90;;;;;;5016569;28;20048;-76
2022/04/19 00:30:15;;;;;;;6.75;3.63;;;6.80;99.90;;;;;;5018774;28;20128;-77
2022/04/19 00:32:41;;;;;;;4.82;3.25;;;6.70;99.90;;;;;;5011675;28;20037;-76
2022/04/19 00:35:09;;;;;;;7.72;4.18;;;6.70;99.90;;;;;;5000486;28;20411;-76
2022/04/19 00:37:35;;;;;;;4.43;2.63;;;6.60;99.90;;;;;;5000254;28;20029;-76
2022/04/19 00:40:06;;;;;;;5.13;3.38;;;6.60;99.90;;;;;;4988910;28;20029;-75
2022/04/19 00:42:33;;;;;;;5.32;3.75;;;6.60;99.90;;;;;;5016746;28;20029;-76
2022/04/19 00:45:02;;;;;;;5.20;3.92;;;6.50;99.90;;;;;;5017287;28;20127;-77
2022/04/19 00:47:29;;;;;;;5.95;3.83;;;6.50;99.90;;;;;;5017510;28;20047;-77
2022/04/19 00:49:55;;;;;;;5.68;3.63;;;6.50;99.90;;;;;;4993820;28;20040;-77
2022/04/19 00:52:21;;;;;;;6.93;3.85;;;6.40;99.90;;;;;;5016448;28;20033;-76
2022/04/19 00:54:47;;;;;;;4.93;3.38;;;6.40;99.90;;;;;;5015483;28;20026;-76
2022/04/19 00:57:14;;;;;;;5.50;3.17;;;6.30;99.90;;;;;;5017266;28;20124;-77
2022/04/19 00:59:44;;;;;;;6.50;3.65;;;6.30;99.90;;;;;;5017469;28;20033;-76
2022/04/19 01:02:10;;;;;;;7.25;3.90;;;6.30;99.90;;;;;;5010503;28;20120;-76
2022/04/19 01:04:36;;;;;;;6.53;3.85;;;6.20;99.90;;;;;;5008440;28;20026;-77
2022/04/19 01:07:03;;;;;;;5.45;3.30;;;6.10;99.90;;;;;;4999792;28;20052;-76
2022/04/19 01:09:30;;;;;;;6.43;3.00;;;6.20;99.90;;;;;;5016407;28;20028;-76
2022/04/19 01:14:47;;;;;;;5.70;3.95;;;6.10;99.90;;;;;;5010912;28;20038;-76
2022/04/19 01:17:15;;;;;;;5.43;3.80;;;6.10;99.90;;;;;;5009390;28;20124;-77
2022/04/19 01:19:43;;;;;;;5.65;3.80;;;6.10;99.90;;;;;;5009622;28;20534;-76
2022/04/19 01:22:15;;;;;;;5.60;3.47;;;6.10;99.90;;;;;;4997700;28;20053;-76
2022/04/19 01:24:44;;;;;;;6.68;3.75;;;6.10;99.90;;;;;;5016097;28;20049;-76
2022/04/19 01:27:13;;;;;;;5.68;3.65;;;6.10;99.90;;;;;;5008933;28;20080;-76
2022/04/19 01:29:40;;;;;;;7.00;3.80;;;6.00;99.90;;;;;;5015738;28;20108;-76
2022/04/19 01:32:08;;;;;;;5.70;3.30;;;6.10;99.90;;;;;;5017812;28;20021;-76
2022/04/19 01:34:34;;;;;;;6.60;3.83;;;6.10;99.90;;;;;;4994915;28;20029;-76
2022/04/19 01:37:03;;;;;;;6.75;4.70;;;6.10;99.90;;;;;;5019591;28;20018;-76
2022/04/19 01:42:13;;;;;;;5.25;3.40;;;6.10;99.90;;;;;;5008995;28;20017;-76
2022/04/19 01:44:45;;;;;;;5.90;4.25;;;6.00;99.90;;;;;;5016531;28;20382;-76
2022/04/19 01:47:11;;;;;;;8.73;4.25;;;5.80;99.90;;;;;;5008701;28;20029;-76
2022/04/19 01:49:42;;;;;;;5.95;3.20;;;5.70;99.90;;;;;;5009570;28;20030;-77
2022/04/19 01:52:08;;;;;;;6.30;4.03;;;5.70;99.90;;;;;;5014316;28;20127;-77
2022/04/19 01:54:35;;;;;;;5.65;3.90;;;5.70;99.90;;;;;;5000109;28;20879;-77
2022/04/19 01:57:01;;;;;;;6.93;3.33;;;5.70;99.90;;;;;;4999432;28;20049;-77
2022/04/19 01:59:41;;;;;;;6.85;4.10;;;5.60;99.90;;;;;;5015065;28;20041;-77
2022/04/19 02:02:14;;;;;;;7.40;3.90;;;5.50;99.90;;;;;;5010121;28;20030;-76
2022/04/19 02:04:39;;;;;;;5.30;4.18;;;5.50;99.90;;;;;;4999307;28;20420;-77
2022/04/19 02:07:05;;;;;;;7.30;4.13;;;5.40;99.90;;;;;;5015971;28;20029;-77
2022/04/19 02:09:31;;;;;;;6.45;4.32;;;5.40;99.90;;;;;;5015223;28;20037;-77
2022/04/19 02:11:57;;;;;;;5.43;3.47;;;5.40;99.90;;;;;;5014424;28;20538;-77
2022/04/19 02:14:38;;;;;;;5.82;3.10;;;5.30;99.90;;;;;;5001365;28;20037;-76
2022/04/19 02:17:07;;;;;;;4.68;3.20;;;5.40;99.90;;;;;;5010683;28;20226;-76
2022/04/19 02:19:33;;;;;;;4.97;3.15;;;5.30;99.90;;;;;;5020536;28;20048;-77
2022/04/19 02:21:58;;;;;;;5.07;3.13;;;5.30;99.90;;;;;;4996333;28;20042;-77
2022/04/19 02:24:24;;;;;;;6.15;3.67;;;5.20;99.90;;;;;;5018202;28;20037;-77
2022/04/19 02:26:50;;;;;;;5.43;3.58;;;5.10;99.90;;;;;;5018194;28;20029;-76
2022/04/19 02:29:16;;;;;;;5.68;3.83;;;5.10;99.90;;;;;;5018675;28;20036;-76
2022/04/19 02:31:46;;;;;;;5.22;3.88;;;5.10;99.90;;;;;;5018898;28;20056;-76
2022/04/19 02:34:18;;;;;;;4.35;2.83;;;5.10;99.90;;;;;;5003360;28;20120;-76
2022/04/19 02:36:44;;;;;;;5.15;2.97;;;5.10;99.90;;;;;;5002485;28;20033;-77
2022/04/19 02:39:11;;;;;;;3.85;2.92;;;5.10;99.90;;;;;;5011765;28;20033;-76
2022/04/19 02:41:37;;;;;;;4.85;3.30;;;5.20;99.90;;;;;;5017351;28;20398;-76
2022/04/19 02:44:06;;;;;;;4.68;3.13;;;5.10;99.90;;;;;;5003074;28;20025;-76
2022/04/19 02:46:35;;;;;;;4.65;3.03;;;5.10;99.90;;;;;;5018792;28;20052;-76
2022/04/19 02:49:04;;;;;;;4.35;2.40;;;5.10;99.90;;;;;;4995534;28;20033;-77
2022/04/19 02:51:31;;;;;;;4.40;2.75;;;5.10;99.90;;;;;;5002655;28;20021;-76
2022/04/19 02:53:57;;;;;;;4.68;2.83;;;5.00;99.90;;;;;;5013868;28;20056;-76
2022/04/19 02:56:24;;;;;;;5.47;2.60;;;5.00;99.90;;;;;;5017838;28;20042;-77
2022/04/19 02:58:50;;;;;;;3.67;2.50;;;5.00;99.90;;;;;;5011768;28;20021;-77
2022/04/19 03:01:16;;;;;;;4.55;2.53;;;5.00;99.90;;;;;;5001643;28;20033;-77
2022/04/19 03:03:45;;;;;;;4.55;2.45;;;5.10;99.90;;;;;;5012782;28;20034;-77
2022/04/19 03:06:12;;;;;;;3.75;2.25;;;5.00;99.90;;;;;;5002953;28;20034;-76
2022/04/19 03:08:38;;;;;;;4.10;2.00;;;4.90;99.90;;;;;;5012486;28;20397;-77
2022/04/19 03:11:04;;;;;;;4.35;2.28;;;4.90;99.90;;;;;;5016643;28;20044;-76
2022/04/19 03:13:32;;;;;;;3.92;2.05;;;4.90;99.90;;;;;;5017855;28;20083;-77
2022/04/19 03:15:58;;;;;;;4.43;2.03;;;5.00;99.90;;;;;;5003783;28;20038;-76
2022/04/19 03:18:25;;;;;;;3.75;2.28;;;4.90;99.90;;;;;;5018836;28;20077;-77
2022/04/19 03:20:51;;;;;;;3.35;2.10;;;4.90;99.90;;;;;;5010923;28;20048;-76
2022/04/19 03:28:55;;;;;;;4.10;2.13;;;4.80;99.90;;;;;;4995461;28;20049;-76
2022/04/19 03:31:24;;;;;;;4.03;1.92;;;4.80;99.90;;;;;;5018381;28;20111;-76
2022/04/19 03:33:52;;;;;;;4.88;2.08;;;4.80;99.90;;;;;;4998190;28;20069;-76
2022/04/19 03:36:20;;;;;;;3.55;2.08;;;4.70;99.90;;;;;;5002004;28;20505;-76
2022/04/19 03:38:47;;;;;;;4.45;2.00;;;4.80;99.90;;;;;;5000612;28;20038;-76
2022/04/19 03:41:13;;;;;;;3.28;1.92;;;4.70;99.90;;;;;;5001508;28;20072;-76
2022/04/19 03:43:41;;;;;;;3.80;2.15;;;4.80;99.90;;;;;;5010869;28;20120;-76
2022/04/19 03:46:07;;;;;;;3.50;1.83;;;4.70;99.90;;;;;;4995649;28;20037;-77
2022/04/19 03:48:33;;;;;;;4.65;1.80;;;4.60;99.90;;;;;;4994717;28;20116;-76
2022/04/19 03:50:58;;;;;;;5.18;2.13;;;4.70;99.90;;;;;;5000845;28;20035;-76
2022/04/19 03:53:24;;;;;;;3.53;1.77;;;4.60;99.90;;;;;;5001769;28;20437;-77
2022/04/19 03:55:50;;;;;;;4.55;2.65;;;4.60;99.90;;;;;;5001487;28;20056;-76
2022/04/19 03:58:17;;;;;;;3.97;1.90;;;4.70;99.90;;;;;;5002571;28;20029;-76
2022/04/19 04:00:42;;;;;;;4.68;1.92;;;4.70;99.90;;;;;;5012992;28;20033;-76
2022/04/19 04:03:08;;;;;;;4.72;2.03;;;4.80;99.90;;;;;;5011621;28;20417;-76
2022/04/19 04:05:34;;;;;;;3.70;2.22;;;4.80;99.90;;;;;;4994565;28;20029;-77
2022/04/19 04:08:01;;;;;;;3.97;2.10;;;4.80;99.90;;;;;;4995345;28;20033;-76
2022/04/19 04:10:34;;;;;;;5.00;2.45;;;4.80;99.90;;;;;;5003772;28;20548;-76
2022/04/19 04:13:00;;;;;;;4.15;1.98;;;4.80;99.90;;;;;;5011021;28;20093;-76
2022/04/19 04:15:26;;;;;;;4.80;2.22;;;4.80;99.90;;;;;;5017327;28;20049;-76
2022/04/19 04:17:52;;;;;;;4.22;2.05;;;4.70;99.90;;;;;;4999496;28;20199;-76
2022/04/19 04:20:18;;;;;;;4.95;2.15;;;4.70;99.90;;;;;;4994020;28;20032;-76
2022/04/19 04:22:43;;;;;;;5.85;2.95;;;4.80;99.90;;;;;;5010198;28;20032;-76
2022/04/19 04:25:09;;;;;;;5.85;2.80;;;4.90;99.90;;;;;;5015988;28;22075;-76
2022/04/19 04:27:35;;;;;;;4.43;2.35;;;4.80;99.90;;;;;;5014576;28;20049;-76
2022/04/19 04:30:02;;;;;;;3.58;2.10;;;4.70;99.90;;;;;;5011351;28;20497;-76
2022/04/19 04:32:30;;;;;;;5.30;2.58;;;4.60;99.90;;;;;;5002061;28;20029;-76
2022/04/19 04:34:56;;;;;;;4.75;2.25;;;4.60;99.90;;;;;;5016451;28;20125;-76
2022/04/19 04:37:22;;;;;;;5.55;2.35;;;4.60;99.90;;;;;;5015466;28;20052;-76
2022/04/19 04:39:55;;;;;;;4.53;2.03;;;4.60;99.90;;;;;;5009038;28;20051;-76
2022/04/19 04:42:23;;;;;;;4.63;2.40;;;4.60;99.90;;;;;;5017724;28;20034;-76
2022/04/19 04:44:49;;;;;;;3.95;1.67;;;4.60;99.90;;;;;;5000360;28;20060;-76
2022/04/19 04:50:00;;;;;;;5.50;3.30;;;4.70;99.90;;;;;;5031655;28;20036;-76
2022/04/19 04:52:26;;;;;;;6.75;4.18;;;4.70;99.90;;;;;;5000241;28;20496;-76
2022/04/19 04:54:53;;;;;;;7.00;3.80;;;4.80;99.90;;;;;;4998127;28;20368;-77
2022/04/19 04:57:24;;;;;;;8.45;4.20;;;4.90;99.90;;;;;;5010254;28;20426;-76
2022/04/19 04:59:50;;;;;;;6.47;3.80;;;4.90;99.90;;;;;;4999865;28;20037;-76
2022/04/19 05:02:18;;;;;;;6.68;3.75;;;4.90;99.90;;;;;;5016682;28;20021;-76
2022/04/19 05:04:43;;;;;;;5.57;3.55;;;4.80;99.90;;;;;;5016405;28;20368;-76
2022/04/19 05:07:09;;;;;;;5.20;3.10;;;4.90;99.90;;;;;;5009633;28;20033;-76
2022/04/19 05:09:44;;;;;;;4.78;2.63;;;4.90;99.90;;;;;;5014009;28;20729;-81
2022/04/19 05:12:10;;;;;;;5.60;2.55;;;4.80;99.90;;;;;;5000245;28;20033;-76
2022/04/19 05:14:38;;;;;;;5.28;2.78;;;4.90;99.90;;;;;;4981818;28;20033;-77
2022/04/19 05:17:04;;;;;;;4.68;2.50;;;4.90;99.90;;;;;;5017157;28;22253;-77
2022/04/19 05:19:31;;;;;;;4.22;2.30;;;5.00;99.90;;;;;;4993359;28;20033;-76
2022/04/19 05:21:56;;;;;;;3.38;1.92;;;5.00;99.90;;;;;;4995039;28;20033;-76
2022/04/19 05:24:23;;;;;;;6.03;2.25;;;5.10;99.90;;;;;;4993642;28;20025;-77
2022/04/19 05:26:49;;;;;;;6.15;3.20;;;5.30;99.90;;;;;;5014319;28;20032;-77
2022/04/19 05:29:15;;;;;;;3.92;2.13;;;5.30;99.90;;;;;;4999536;28;22029;-77
2022/04/19 05:31:42;;;;;;;4.55;2.92;;;5.30;99.90;;;;;;5020339;28;20160;-77
2022/04/19 05:34:08;;;;;;;5.25;2.90;;;5.50;99.90;;;;;;4995391;28;20030;-76
2022/04/19 05:36:35;;;;;;;3.95;2.85;;;5.50;99.90;;;;;;4999458;28;20025;-77
2022/04/19 05:39:00;;;;;;;7.93;3.55;;;5.80;99.90;;;;;;5013514;28;20033;-77
2022/04/19 05:41:27;;;;;;;5.18;3.20;;;5.90;99.90;;;;;;5015232;28;22175;-76
2022/04/19 05:43:54;;;;;;;5.03;3.20;;;5.80;99.90;;;;;;5010327;28;20029;-77
2022/04/19 05:46:20;;;;;;;5.20;2.75;;;6.00;99.90;;;;;;4996350;28;20025;-76
2022/04/19 05:48:46;;;;;;;4.35;2.53;;;6.10;99.90;;;;;;4999927;28;20037;-76
2022/04/19 05:51:12;;;;;;;6.47;3.58;;;6.30;99.90;;;;;;5012079;28;22303;-76
2022/04/19 05:53:39;;;;;;;7.05;4.00;;;6.40;99.90;;;;;;5019181;28;20030;-76
2022/04/19 05:56:06;;;;;;;5.75;3.17;;;6.40;99.90;;;;;;4997302;28;20064;-76
2022/04/19 05:58:32;;;;;;;7.63;4.05;;;6.30;99.90;;;;;;5003933;28;20465;-77
2022/04/19 06:00:57;;;;;;;6.07;4.00;;;6.60;99.90;;;;;;5012328;28;20029;-78
2022/04/19 06:06:07;;;;;;;6.15;3.47;;;6.80;99.90;;;;;;5029014;28;20072;-77
2022/04/19 06:08:36;;;;;;;7.70;3.53;;;6.80;99.90;;;;;;5001411;28;20037;-76
2022/04/19 06:11:07;;;;;;;5.53;2.92;;;6.80;99.90;;;;;;5019592;28;20060;-77
2022/04/19 06:13:33;;;;;;;7.38;3.38;;;6.90;99.90;;;;;;5002710;28;20021;-77
2022/04/19 06:16:01;;;;;;;6.43;3.60;;;7.10;99.90;;;;;;5001819;28;20386;-77
2022/04/19 06:18:29;;;;;;;5.55;3.33;;;7.20;99.90;;;;;;5012810;28;20045;-77
2022/04/19 06:21:01;;;;;;;5.40;3.20;;;7.40;99.90;;;;;;5012628;28;20505;-77
2022/04/19 06:23:27;;;;;;;6.15;3.80;;;7.50;99.90;;;;;;5012701;28;20052;-76
2022/04/19 06:25:53;;;;;;;6.28;3.80;;;7.80;99.90;;;;;;5018788;28;20028;-76
2022/04/19 06:28:21;;;;;;;7.63;4.10;;;7.90;99.90;;;;;;5017507;28;20128;-77
2022/04/19 06:31:05;;;;;;;8.30;4.25;;;8.20;99.90;;;;;;5018775;28;20044;-77
2022/04/19 06:33:31;;;;;;;5.35;3.22;;;8.40;99.90;;;;;;5001080;28;20041;-76
2022/04/19 06:35:57;;;;;;;6.85;3.60;;;8.60;99.90;;;;;;4996288;28;20195;-77
2022/04/19 06:38:23;;;;;;;5.45;3.38;;;8.80;99.90;;;;;;5000927;28;20633;-77
2022/04/19 06:40:49;;;;;;;5.43;3.30;;;9.10;99.90;;;;;;4997004;28;20033;-76
2022/04/19 06:43:15;;;;;;;5.28;3.13;;;9.40;99.90;;;;;;4999992;28;20018;-76
2022/04/19 06:46:01;;;;;;;5.22;3.35;;;9.60;99.90;;;;;;5017234;28;20040;-76
2022/04/19 06:48:31;;;;;;;5.38;3.47;;;9.80;99.90;;;;;;4976623;28;20049;-77
2022/04/19 06:50:58;;;;;;;7.82;3.58;;;10.10;99.90;;;;;;5012314;28;20029;-77
2022/04/19 06:53:26;;;;;;;6.03;3.75;;;10.40;99.90;;;;;;5012423;28;20040;-77
2022/04/19 06:56:01;;;;;;;5.18;2.97;;;10.60;99.90;;;;;;5007026;28;20037;-77
2022/04/19 06:58:28;;;;;;;6.70;3.88;;;10.80;99.90;;;;;;5010369;28;20052;-77
2022/04/19 07:00:54;;;;;;;5.45;3.17;;;11.10;99.90;;;;;;5009472;28;20494;-77
2022/04/19 07:03:20;;;;;;;5.18;3.17;;;11.30;99.90;;;;;;4989725;28;20033;-76
2022/04/19 07:06:05;;;;;;;5.53;3.40;;;11.60;99.90;;;;;;5016635;28;20048;-76
2022/04/19 07:08:32;;;;;;;5.40;3.78;;;11.80;99.90;;;;;;5026485;28;20041;-77
2022/04/19 07:11:00;;;;;;;5.50;3.28;;;12.00;99.90;;;;;;5016018;28;20037;-77
2022/04/19 07:13:55;;;;;;;6.00;3.22;;;12.10;99.90;;;;;;5011578;28;20044;-76
2022/04/19 07:16:59;;;;;;;7.53;3.20;;;12.20;99.90;;;;;;5012073;28;20052;-76
2022/04/19 07:26:37;;;;;;;4.45;3.05;;;12.40;99.90;;;;;;5010173;28;20478;-77
2022/04/19 07:27:47;;;;;;;4.97;3.13;;;13.10;99.90;;;;;;5009706;28;20137;-77
2022/04/19 07:30:16;;;;;;;5.35;3.17;;;13.40;99.90;;;;;;5017131;28;20026;-78
2022/04/19 07:32:42;;;;;;;5.25;2.90;;;13.50;99.90;;;;;;5001193;28;20052;-76
2022/04/19 07:35:26;;;;;;;5.97;3.55;;;13.60;99.90;;;;;;4997810;28;20033;-77
2022/04/19 07:37:52;;;;;;;5.57;3.38;;;13.80;99.90;;;;;;5016082;28;20068;-77
2022/04/19 07:40:20;;;;;;;4.45;2.58;;;14.00;99.90;;;;;;5030754;28;20029;-77
2022/04/19 07:42:46;;;;;;;5.90;3.28;;;14.20;99.90;;;;;;5015296;28;20026;-77
2022/04/19 07:45:11;;;;;;;5.00;2.10;;;14.30;99.90;;;;;;5015692;28;20022;-77
2022/04/19 07:47:37;;;;;;;4.90;2.92;;;14.40;99.90;;;;;;5016889;28;20042;-77
2022/04/19 07:50:04;;;;;;;5.45;2.30;;;14.60;99.90;;;;;;4999886;28;20049;-77
2022/04/19 07:52:29;;;;;;;5.43;2.38;;;14.70;99.90;;;;;;4990157;28;20405;-78
2022/04/19 07:54:55;;;;;;;5.28;2.80;;;14.90;99.90;;;;;;5015078;28;20052;-78
2022/04/19 07:57:21;;;;;;;3.80;1.83;;;15.00;99.90;;;;;;5014912;28;20043;-78
2022/04/19 07:59:53;;;;;;;4.68;2.15;;;15.10;99.90;;;;;;5015693;28;20033;-77
2022/04/19 08:02:19;;;;;;;;;;;15.30;99.90;;;;;;5008902;28;20084;-77
2022/04/19 08:04:45;;;;;;;2.60;1.13;;;15.40;99.90;;;;;;5001927;28;19909;-78
2022/04/19 08:07:11;;;;;;;3.00;1.20;;;15.70;99.90;;;;;;5009424;28;20167;-78
2022/04/19 08:09:38;;;;;;;3.22;1.55;;;15.70;99.90;;;;;;5032060;28;20040;-79
2022/04/19 08:12:05;;;;;;;4.80;2.05;;;15.70;99.90;;;;;;5008847;28;20143;-79
2022/04/19 08:14:31;;;;;;;4.78;1.83;;;15.70;99.90;;;;;;5011537;28;20030;-79
2022/04/19 08:16:56;;;;;;;4.18;1.73;;;15.90;99.90;;;;;;4990354;28;20026;-78
2022/04/19 08:19:22;;;;;;;3.78;1.67;;;16.10;99.90;;;;;;5012407;28;20091;-79
2022/04/19 08:21:48;;;;;;;3.55;1.63;;;16.20;99.90;;;;;;5005267;28;20505;-78
2022/04/19 08:24:13;;;;;;;5.10;1.73;;;16.20;99.90;;;;;;4996897;28;20051;-77
2022/04/19 08:26:40;;;;;;;3.63;1.60;;;16.10;99.90;;;;;;4996588;28;22210;-77
2022/04/19 08:29:07;;;;;;;3.30;1.30;;;16.20;99.90;;;;;;5007698;28;20041;-78
2022/04/19 08:31:34;;;;;;;3.53;0.95;;;16.30;99.90;;;;;;5008779;28;20022;-78
2022/04/19 08:34:00;;;;;;;2.70;0.82;;;16.60;99.90;;;;;;5028539;28;22406;-79
2022/04/19 08:36:25;;;;;;;4.28;1.40;;;16.60;99.90;;;;;;4993462;28;20100;-79
2022/04/19 08:38:51;;;;;;;4.30;1.75;;;16.60;99.90;;;;;;5006571;28;20223;-79
2022/04/19 08:41:20;;;;;;;3.85;1.52;;;16.60;99.90;;;;;;5012039;28;20036;-78
2022/04/19 08:43:47;;;;;;;4.18;1.60;;;16.80;99.90;;;;;;5006708;28;20048;-77
2022/04/19 08:46:13;;;;;;;4.13;1.48;;;16.80;99.90;;;;;;4998525;28;20041;-78
2022/04/19 08:48:40;;;;;;;3.05;0.95;;;16.80;99.90;;;;;;5014997;28;20092;-78
2022/04/19 08:51:10;;;;;;;2.85;1.00;;;17.00;99.90;;;;;;4991365;28;20021;-78
2022/04/19 08:59:07;;;;;;;2.00;0.60;;;17.00;99.90;;;;;;5013070;28;20034;-78
2022/04/19 09:01:35;;;;;;;2.70;0.98;;;17.20;99.90;;;;;;5013548;28;20369;-77
2022/04/19 09:04:04;;;;;;;2.20;0.70;;;17.10;99.90;;;;;;5012878;28;20505;-79
2022/04/19 09:06:50;;;;;;;2.85;0.90;;;17.10;99.90;;;;;;5012502;28;20053;-79
2022/04/19 09:09:24;;;;;;;2.60;0.70;;;17.30;99.90;;;;;;5009450;28;20060;-78
2022/04/19 09:12:04;;;;;;;2.78;0.82;;;17.30;99.90;;;;;;5008779;28;20030;-78
2022/04/19 09:14:30;;;;;;;2.28;0.65;;;17.50;99.90;;;;;;5009581;28;20060;-79
2022/04/19 09:17:05;;;;;;;3.05;0.93;;;17.60;99.90;;;;;;5016292;28;20187;-78
2022/04/19 09:19:31;;;;;;;2.45;0.60;;;17.50;99.90;;;;;;4992341;28;20124;-79
2022/04/19 09:21:57;;;;;;;3.47;0.80;;;17.50;99.90;;;;;;4997256;28;20029;-79
2022/04/19 09:24:25;;;;;;;1.98;0.70;;;17.60;99.90;;;;;;5013216;28;20095;-78
2022/04/19 09:26:51;;;;;;;2.17;0.70;;;17.50;99.90;;;;;;5000574;28;20033;-78
2022/04/19 09:29:25;;;;;;;2.30;0.70;;;17.80;99.70;;;;;;5015175;28;20735;-78
2022/04/19 09:31:58;;;;;;;1.55;0.57;;;17.80;99.90;;;;;;5016206;28;20108;-78
2022/04/19 09:34:37;;;;;;;1.95;0.60;;;18.00;99.90;;;;;;5015459;28;20584;-78
2022/04/19 09:37:13;;;;;;;1.85;0.50;;;18.30;99.70;;;;;;5011389;28;20033;-78
2022/04/19 09:39:44;;;;;;;2.70;0.70;;;18.10;99.90;;;;;;5015590;28;20144;-79
2022/04/19 09:42:14;;;;;;;2.17;0.70;;;18.10;99.80;;;;;;5031752;28;20124;-78
2022/04/19 09:44:41;;;;;;;;;;;18.20;99.50;;;;;;5015874;28;20065;-78
2022/04/19 09:47:16;;;;;;;2.25;0.68;;;18.40;99.10;;;;;;5009330;28;20334;-78
2022/04/19 09:49:52;;;;;;;2.13;0.70;;;18.40;99.10;;;;;;5016261;28;20041;-78
2022/04/19 09:52:21;;;;;;;1.98;0.70;;;18.60;99.00;;;;;;5009788;28;20033;-78
2022/04/19 09:55:19;;;;;;;1.73;0.50;;;18.60;98.80;;;;;;4988600;28;20496;-79
2022/04/19 09:57:48;;;;;;;2.30;0.50;;;18.80;98.50;;;;;;5000508;28;20052;-78
2022/04/19 10:00:16;;;;;;;2.53;0.60;;;18.80;97.10;;;;;;5016947;28;20026;-78
2022/04/19 10:08:21;;;;;;;2.90;0.65;;;18.80;97.70;;;;;;5016177;28;20275;-79
2022/04/19 10:10:52;;;;;;;1.75;0.50;;;18.60;98.10;;;;;;5015589;28;20466;-77
2022/04/19 10:13:20;;;;;;;1.92;0.57;;;18.90;98.20;;;;;;5010126;28;20088;-79
2022/04/19 10:15:46;;;;;;;2.67;0.70;;;18.80;97.50;;;;;;5017605;28;20057;-78
2022/04/19 10:18:12;;;;;;;2.88;0.65;;;18.80;97.20;;;;;;5013386;28;20041;-79
2022/04/19 10:20:46;;;;;;;2.40;0.70;;;19.00;97.30;;;;;;5017428;28;20036;-78
2022/04/19 10:23:13;;;;;;;2.58;0.55;;;19.10;97.20;;;;;;5017389;28;20034;-78
2022/04/19 10:25:40;;;;;;;2.33;0.50;;;19.00;97.50;;;;;;5019701;28;20095;-78
2022/04/19 10:28:11;;;;;;;1.75;0.52;;;19.30;97.10;;;;;;5016970;28;20048;-78
2022/04/19 10:30:39;;;;;;;2.33;0.45;;;19.10;96.70;;;;;;4991093;28;20038;-78
2022/04/19 10:33:39;;;;;;;1.80;0.63;;;19.30;97.20;;;;;;5010920;28;20104;-78
2022/04/19 10:36:18;;;;;;;2.42;0.60;;;19.50;96.80;;;;;;5009953;28;20398;-78
2022/04/19 10:39:05;;;;;;;2.33;0.65;;;19.70;96.70;;;;;;5018503;28;20559;-78
2022/04/19 10:41:53;;;;;;;2.05;0.50;;;19.60;96.40;;;;;;5000118;28;20330;-78
2022/04/19 10:44:38;;;;;;;2.15;0.60;;;19.80;96.20;;;;;;5023615;28;20040;-79
2022/04/19 10:47:05;;;;;;;2.58;0.85;;;19.40;96.40;;;;;;5015400;28;20557;-78
2022/04/19 10:49:30;;;;;;;2.75;0.80;;;19.40;96.30;;;;;;5017376;28;20021;-79
2022/04/19 10:52:00;;;;;;;2.83;0.70;;;19.40;96.60;;;;;;5009285;28;20493;-77
2022/04/19 10:55:01;;;;;;;2.17;0.70;;;19.50;96.80;;;;;;5012131;28;20029;-79
2022/04/19 11:00:26;;;;;;;1.75;0.60;;;19.80;96.30;;;;;;5031822;28;20040;-79
2022/04/19 11:03:41;;;;;;;1.50;0.55;;;20.00;96.90;;;;;;4987690;28;20120;-78
2022/04/19 11:06:28;;;;;;;1.65;0.50;;;20.00;96.70;;;;;;5012642;28;20442;-78
2022/04/19 11:09:09;;;;;;;1.83;0.50;;;19.80;96.30;;;;;;4999956;28;20056;-77
2022/04/19 11:11:48;;;;;;;2.63;0.50;;;20.40;95.80;;;;;;5030314;28;20033;-78
2022/04/19 11:14:35;;;;;;;3.22;0.88;;;19.90;96.30;;;;;;5016014;28;20098;-79
2022/04/19 11:17:22;;;;;;;1.80;0.60;;;20.40;97.30;;;;;;5014575;28;20053;-80
2022/04/19 11:19:55;;;;;;;4.03;1.38;;;20.60;96.60;;;;;;5014195;28;20026;-78
2022/04/19 11:22:42;;;;;;;2.60;0.80;;;20.30;96.40;;;;;;5007912;28;20033;-78
2022/04/19 11:25:08;;;;;;;1.98;0.68;;;20.60;96.50;;;;;;4998768;28;20041;-78
2022/04/19 11:27:52;;;;;;;1.65;0.40;;;21.20;95.70;;;;;;5016211;28;20103;-80
2022/04/19 11:30:17;;;;;;;2.00;0.50;;;20.80;94.80;;;;;;5009346;28;20046;-78
2022/04/19 11:32:49;;;;;;;2.03;0.70;;;20.60;96.00;;;;;;5014210;28;20037;-78
2022/04/19 11:35:16;;;;;;;3.08;0.60;;;20.20;95.50;;;;;;5014228;28;20048;-79
2022/04/19 11:37:43;;;;;;;3.65;0.90;;;20.50;95.70;;;;;;4989780;28;20030;-79
2022/04/19 11:48:50;;;;;;;2.05;0.70;;;20.20;96.00;;;;;;4999874;28;20099;-78
2022/04/19 11:51:18;;;;;;;3.10;1.23;;;20.30;96.50;;;;;;5017463;28;20103;-78
2022/04/19 11:53:44;;;;;;;1.65;0.70;;;20.20;96.30;;;;;;5014552;28;20076;-78
2022/04/19 11:56:10;;;;;;;1.35;0.50;;;20.30;95.90;;;;;;5016010;28;20076;-78
2022/04/19 11:58:39;;;;;;;1.50;0.60;;;20.30;95.70;;;;;;5009170;28;20118;-78
2022/04/19 12:01:07;;;;;;;2.00;0.70;;;20.50;95.70;;;;;;5014841;28;20037;-78
2022/04/19 12:03:38;;;;;;;1.20;0.38;;;20.70;95.90;;;;;;4991252;28;20044;-78
2022/04/19 12:06:10;;;;;;;1.80;0.40;;;20.30;95.30;;;;;;5007886;28;20033;-78
2022/04/19 12:08:43;;;;;;;0.98;0.30;;;20.20;95.70;;;;;;5012464;28;20050;-79
2022/04/19 12:11:13;;;;;;;0.98;0.38;;;20.80;96.10;;;;;;4991599;28;20120;-81
2022/04/19 12:13:42;;;;;;;0.55;0.22;;;20.80;95.00;;;;;;4997116;28;20424;-79
2022/04/19 12:16:25;;;;;;;0.90;0.30;;;20.40;95.30;;;;;;4989989;28;20873;-81
2022/04/19 12:18:53;;;;;;;0.65;0.20;;;20.20;95.60;;;;;;5030528;28;20033;-78
2022/04/19 12:21:39;;;;;;;1.13;0.38;;;20.60;95.30;;;;;;4991827;28;20116;-79
2022/04/19 12:24:21;;;;;;;0.77;0.22;;;20.60;95.80;;;;;;5007170;28;20386;-79
2022/04/19 12:27:09;;;;;;;2.45;0.30;;;20.50;95.50;;;;;;5009123;28;20081;-79
2022/04/19 12:29:37;;;;;;;2.37;0.40;;;20.80;95.00;;;;;;5011531;28;20085;-81
2022/04/19 12:32:05;;;;;;;0.95;0.50;;;20.50;94.10;;;;;;5014918;28;20037;-80
2022/04/19 12:34:36;;;;;;;1.02;0.22;;;20.40;95.10;;;;;;5006863;28;20401;-81
2022/04/19 12:37:06;;;;;;;1.25;0.30;;;20.30;95.00;;;;;;5013746;28;20405;-81
2022/04/19 12:39:31;;;;;;;0.95;0.30;;;20.50;94.80;;;;;;5014506;28;20033;-80
2022/04/19 12:42:07;;;;;;;0.50;0.20;;;20.30;94.40;;;;;;5011657;28;20033;-80
2022/04/19 12:44:34;;;;;;;0.57;0.20;;;20.20;95.00;;;;;;5013906;28;20029;-79
2022/04/19 12:47:03;;;;;;;1.45;0.30;;;20.50;94.30;;;;;;5006996;28;20357;-78
2022/04/19 12:49:31;;;;;;;1.33;0.30;;;20.00;94.40;;;;;;5013285;28;20060;-81
2022/04/19 12:52:05;;;;;;;0.80;0.30;;;20.50;94.10;;;;;;5013645;28;20299;-80
2022/04/19 12:54:35;;;;;;;0.93;0.30;;;20.30;94.80;;;;;;5013649;28;20033;-79
2022/04/19 12:57:03;;;;;;;0.57;0.20;;;20.80;95.60;;;;;;5014771;28;20157;-80
2022/04/19 12:59:33;;;;;;;0.93;0.30;;;20.90;95.40;;;;;;5006647;28;20041;-86
2022/04/19 13:01:59;;;;;;;1.65;0.70;;;20.70;95.40;;;;;;5011834;28;20147;-83
2022/04/19 13:04:26;;;;;;;0.70;0.30;;;20.10;95.10;;;;;;5012843;28;20104;-79
2022/04/19 13:12:23;;;;;;;0.70;0.30;;;20.10;95.70;;;;;;5014036;28;20402;-79
2022/04/19 13:14:53;;;;;;;0.80;0.30;;;20.30;95.70;;;;;;5013212;28;20040;-80
2022/04/19 13:17:20;;;;;;;1.55;0.30;;;20.40;94.90;;;;;;5008222;28;20034;-79
2022/04/19 13:19:46;;;;;;;1.05;0.43;;;20.70;95.60;;;;;;5013129;28;20029;-83
2022/04/19 13:22:13;;;;;;;0.95;0.30;;;20.90;94.80;;;;;;5014999;28;20045;-79
2022/04/19 13:24:39;;;;;;;0.95;0.40;;;20.90;95.10;;;;;;5012116;28;20057;-81
2022/04/19 13:27:06;;;;;;;0.80;0.40;;;20.80;95.40;;;;;;5013532;28;20029;-80
2022/04/19 13:29:32;;;;;;;1.33;0.30;;;21.10;95.20;;;;;;4997207;28;20045;-79
2022/04/19 13:31:58;;;;;;;0.80;0.30;;;20.80;95.40;;;;;;5012435;28;20287;-80
2022/04/19 13:34:23;;;;;;;0.60;0.20;;;20.50;94.80;;;;;;5012400;28;20191;-79
2022/04/19 13:36:51;;;;;;;0.98;0.30;;;20.50;94.80;;;;;;5013304;28;20087;-80
2022/04/19 13:39:16;;;;;;;0.88;0.30;;;20.60;94.70;;;;;;5007145;28;20064;-79
2022/04/19 13:41:42;;;;;;;1.55;0.30;;;20.30;94.10;;;;;;5008007;28;20029;-80
2022/04/19 13:44:12;;;;;;;0.80;0.20;;;20.10;93.90;;;;;;4994047;28;20064;-78
2022/04/19 13:46:39;;;;;;;0.40;0.20;;;20.20;93.90;;;;;;5013760;28;20466;-79
2022/04/19 13:49:05;;;;;;;0.75;0.30;;;20.30;93.50;;;;;;5011637;28;20048;-80
2022/04/19 13:51:31;;;;;;;0.88;0.20;;;20.20;93.40;;;;;;5011276;28;20033;-79
2022/04/19 13:53:56;;;;;;;0.60;0.20;;;20.00;93.70;;;;;;5011274;28;20033;-79